Time;durP1;ratioP1;P1;durP2;ratioP2;P2;SDS_P1;SDS_P2;PMS_P1;PMS_P2;Temp;Humidity;BMP_temperature;BMP_pressure;BME280_temperature;BME280_humidity;BME280_pressure;Samples;Min_cycle;Max_cycle;Signal;HPM_P1;HPM_P2
2021/08/13 00:01:01;;;;;;;9.23;5.70;;;21.30;99.90;;;;;;5077184;28;20028;-88
2021/08/13 00:03:27;;;;;;;9.38;5.65;;;21.40;99.90;;;;;;5077533;28;20078;-88
2021/08/13 00:05:53;;;;;;;8.50;5.65;;;21.50;99.90;;;;;;5077145;28;20020;-88
2021/08/13 00:08:19;;;;;;;11.00;5.90;;;21.60;99.90;;;;;;5077299;28;20472;-88
2021/08/13 00:10:44;;;;;;;13.88;6.30;;;21.60;99.90;;;;;;5076595;28;20123;-88
2021/08/13 00:13:10;;;;;;;9.52;5.78;;;21.40;99.90;;;;;;5077256;28;20069;-88
2021/08/13 00:15:36;;;;;;;9.25;5.60;;;21.30;99.90;;;;;;5077404;28;20034;-88
2021/08/13 00:18:02;;;;;;;9.40;5.53;;;21.30;99.90;;;;;;5077641;28;20028;-88
2021/08/13 00:20:27;;;;;;;9.57;5.95;;;21.30;99.90;;;;;;5081269;28;20074;-88
2021/08/13 00:22:53;;;;;;;10.32;5.88;;;21.40;99.90;;;;;;5081201;28;20077;-88
2021/08/13 00:25:20;;;;;;;9.05;6.05;;;21.40;99.90;;;;;;5081125;28;20107;-88
2021/08/13 00:27:46;;;;;;;11.60;6.22;;;21.20;99.90;;;;;;5080694;28;20480;-88
2021/08/13 00:30:12;;;;;;;9.02;5.88;;;21.00;99.90;;;;;;5081127;28;20017;-88
2021/08/13 00:32:38;;;;;;;10.95;5.75;;;20.90;99.90;;;;;;5081335;28;20066;-88
2021/08/13 00:35:05;;;;;;;9.43;5.90;;;20.90;99.90;;;;;;5080988;28;20038;-88
2021/08/13 00:37:31;;;;;;;9.00;5.22;;;20.90;99.90;;;;;;5080677;28;20028;-87
2021/08/13 00:39:58;;;;;;;9.15;5.68;;;21.00;99.90;;;;;;5079714;28;20028;-88
2021/08/13 00:42:23;;;;;;;9.20;6.05;;;20.90;99.90;;;;;;5078426;28;20032;-88
2021/08/13 00:44:50;;;;;;;9.25;6.32;;;20.80;99.90;;;;;;5079040;28;20582;-88
2021/08/13 00:47:15;;;;;;;8.15;5.60;;;20.90;99.90;;;;;;5078950;28;20028;-88
2021/08/13 00:49:41;;;;;;;9.00;5.53;;;20.80;99.90;;;;;;5096875;28;20149;-88
2021/08/13 00:52:07;;;;;;;8.63;5.75;;;20.60;99.90;;;;;;5096560;28;20085;-88
2021/08/13 00:54:33;;;;;;;9.13;5.60;;;20.80;99.90;;;;;;5078665;28;20028;-88
2021/08/13 00:56:59;;;;;;;11.05;6.07;;;20.60;99.90;;;;;;5078594;28;20028;-88
2021/08/13 00:59:25;;;;;;;11.40;5.88;;;20.70;99.90;;;;;;5096721;28;20104;-88
2021/08/13 01:01:51;;;;;;;7.80;5.50;;;20.80;99.90;;;;;;5079412;28;20119;-88
2021/08/13 01:04:17;;;;;;;8.40;5.75;;;20.90;99.90;;;;;;5078510;28;20052;-88
2021/08/13 01:06:42;;;;;;;8.93;5.68;;;20.80;99.90;;;;;;5079806;28;20088;-88
2021/08/13 01:09:08;;;;;;;10.95;5.72;;;20.90;99.90;;;;;;5082361;28;20091;-89
2021/08/13 01:11:55;;;;;;;8.35;5.68;;;21.00;99.90;;;;;;5080097;28;20028;-88
2021/08/13 01:14:30;;;;;;;8.88;5.38;;;20.80;99.90;;;;;;5097319;28;20054;-88
2021/08/13 01:16:59;;;;;;;13.98;5.88;;;20.60;99.90;;;;;;5078578;28;20484;-88
2021/08/13 01:19:42;;;;;;;10.80;6.43;;;20.70;99.90;;;;;;5078164;28;20035;-87
2021/08/13 01:22:22;;;;;;;7.88;5.55;;;20.80;99.90;;;;;;5078080;28;20027;-88
2021/08/13 01:24:51;;;;;;;7.78;5.63;;;20.90;99.90;;;;;;5078294;28;20016;-88
2021/08/13 01:27:23;;;;;;;9.75;6.18;;;20.90;99.90;;;;;;5078051;28;20026;-88
2021/08/13 01:30:05;;;;;;;11.25;6.50;;;20.80;99.90;;;;;;5077494;28;20115;-88
2021/08/13 01:32:35;;;;;;;8.25;6.13;;;20.50;99.90;;;;;;5078173;28;20055;-88
2021/08/13 01:35:19;;;;;;;9.75;6.18;;;20.40;99.90;;;;;;5077984;28;20028;-88
2021/08/13 01:37:52;;;;;;;8.55;6.57;;;20.20;99.90;;;;;;5077746;28;20031;-89
2021/08/13 01:40:20;;;;;;;8.82;6.05;;;20.10;99.90;;;;;;5078743;28;20027;-88
2021/08/13 01:42:47;;;;;;;12.30;6.32;;;20.10;99.90;;;;;;5095747;28;20217;-88
2021/08/13 01:45:19;;;;;;;12.45;6.28;;;20.10;99.90;;;;;;5077733;28;20483;-88
2021/08/13 01:47:46;;;;;;;8.98;6.00;;;20.20;99.90;;;;;;5077757;28;20440;-88
2021/08/13 01:50:12;;;;;;;11.77;6.00;;;20.00;99.90;;;;;;5077562;28;20020;-88
2021/08/13 01:52:39;;;;;;;14.80;6.15;;;20.00;99.90;;;;;;5055687;28;20045;-88
2021/08/13 01:55:06;;;;;;;9.85;5.70;;;20.00;99.90;;;;;;5054246;28;20119;-88
2021/08/13 01:57:32;;;;;;;20.10;6.13;;;20.20;99.90;;;;;;5054167;28;20025;-88
2021/08/13 01:59:59;;;;;;;14.75;6.65;;;20.50;99.90;;;;;;5054173;28;20025;-88
2021/08/13 02:02:25;;;;;;;14.68;6.38;;;20.50;99.90;;;;;;5054059;28;20075;-88
2021/08/13 02:04:53;;;;;;;11.05;6.07;;;20.40;99.90;;;;;;5053981;28;20488;-88
2021/08/13 02:07:20;;;;;;;10.63;6.35;;;20.40;99.90;;;;;;5054054;28;20024;-88
2021/08/13 02:09:46;;;;;;;7.10;5.70;;;20.30;99.90;;;;;;5055043;28;20063;-88
2021/08/13 02:12:13;;;;;;;8.93;6.53;;;20.20;99.90;;;;;;5053843;28;20548;-88
2021/08/13 02:14:39;;;;;;;14.90;6.50;;;20.30;99.90;;;;;;5053799;28;20029;-88
2021/08/13 02:17:08;;;;;;;11.52;6.25;;;20.30;99.90;;;;;;5053713;28;20044;-88
2021/08/13 02:19:41;;;;;;;10.30;5.97;;;20.30;99.90;;;;;;5053912;28;20028;-88
2021/08/13 02:22:07;;;;;;;14.18;6.07;;;20.00;99.90;;;;;;5054900;28;20056;-88
2021/08/13 02:24:33;;;;;;;9.18;6.47;;;20.10;99.90;;;;;;5055260;28;20063;-88
2021/08/13 02:27:00;;;;;;;10.93;5.93;;;19.90;99.90;;;;;;5053653;28;20017;-88
2021/08/13 02:29:27;;;;;;;10.40;5.95;;;20.10;99.90;;;;;;5053540;28;20024;-88
2021/08/13 02:31:53;;;;;;;9.77;5.90;;;20.20;99.90;;;;;;5053625;28;20397;-88
2021/08/13 02:34:19;;;;;;;11.02;5.78;;;20.20;99.90;;;;;;5053585;28;20571;-88
2021/08/13 02:36:55;;;;;;;12.82;6.15;;;20.00;99.90;;;;;;5053371;28;20112;-88
2021/08/13 02:39:44;;;;;;;9.93;6.20;;;20.00;99.90;;;;;;5053432;28;20388;-88
2021/08/13 02:42:15;;;;;;;14.52;6.30;;;20.20;99.90;;;;;;5053766;28;20385;-88
2021/08/13 02:44:45;;;;;;;11.50;6.35;;;20.30;99.90;;;;;;5053253;28;20392;-88
2021/08/13 02:47:12;;;;;;;8.27;6.05;;;20.10;99.90;;;;;;5053146;28;20469;-88
2021/08/13 02:49:52;;;;;;;11.98;6.35;;;20.10;99.90;;;;;;5054322;28;20020;-88
2021/08/13 02:52:22;;;;;;;12.32;5.97;;;20.20;99.90;;;;;;5052917;28;20049;-88
2021/08/13 02:54:50;;;;;;;11.43;6.45;;;20.20;99.90;;;;;;5053032;28;20049;-88
2021/08/13 02:57:18;;;;;;;10.13;5.85;;;20.20;99.90;;;;;;5052913;28;20061;-88
2021/08/13 02:59:45;;;;;;;8.60;5.80;;;20.20;99.90;;;;;;5052814;28;20033;-88
2021/08/13 03:02:11;;;;;;;7.90;5.70;;;20.30;99.90;;;;;;5052826;28;20071;-88
2021/08/13 03:04:39;;;;;;;10.30;6.13;;;20.40;99.90;;;;;;5052783;28;20049;-87
2021/08/13 03:07:04;;;;;;;11.00;6.13;;;20.50;99.90;;;;;;5052782;28;20500;-88
2021/08/13 03:09:32;;;;;;;12.20;5.88;;;20.50;99.90;;;;;;5052734;28;20021;-88
2021/08/13 03:11:58;;;;;;;11.30;6.30;;;20.50;99.90;;;;;;5052546;28;20032;-88
2021/08/13 03:14:25;;;;;;;7.65;5.97;;;20.50;99.90;;;;;;5052660;28;20033;-88
2021/08/13 03:16:52;;;;;;;9.32;6.05;;;20.60;99.90;;;;;;5053740;28;20039;-88
2021/08/13 03:19:20;;;;;;;9.38;6.43;;;20.70;99.90;;;;;;5056392;28;20029;-88
2021/08/13 03:21:46;;;;;;;9.77;6.03;;;20.60;99.90;;;;;;5054206;28;20396;-88
2021/08/13 03:24:13;;;;;;;14.98;6.22;;;20.50;99.90;;;;;;5052756;28;20027;-88
2021/08/13 03:26:40;;;;;;;8.85;6.60;;;20.50;99.90;;;;;;5052532;28;20021;-88
2021/08/13 03:29:06;;;;;;;10.18;6.43;;;20.50;99.90;;;;;;5052423;28;20025;-88
2021/08/13 03:31:45;;;;;;;9.68;6.47;;;20.50;99.90;;;;;;5052412;28;20059;-88
2021/08/13 03:34:14;;;;;;;9.02;5.95;;;20.20;99.90;;;;;;5052376;28;20032;-88
2021/08/13 03:36:40;;;;;;;10.32;6.22;;;20.30;99.90;;;;;;5052274;28;20032;-88
2021/08/13 03:39:08;;;;;;;9.95;5.80;;;20.20;99.90;;;;;;5052288;28;20029;-88
2021/08/13 03:41:35;;;;;;;12.45;5.88;;;20.30;99.90;;;;;;5052119;28;20029;-88
2021/08/13 03:44:02;;;;;;;6.72;5.80;;;20.30;99.90;;;;;;5052191;28;20059;-88
2021/08/13 03:46:27;;;;;;;13.70;6.60;;;20.30;99.90;;;;;;5052132;28;20048;-88
2021/08/13 03:48:53;;;;;;;8.50;5.82;;;20.30;99.90;;;;;;5052048;28;20059;-88
2021/08/13 03:51:19;;;;;;;10.63;6.28;;;20.40;99.90;;;;;;5051991;28;20076;-88
2021/08/13 03:53:45;;;;;;;9.73;5.95;;;20.40;99.90;;;;;;5051857;28;20040;-89
2021/08/13 03:56:11;;;;;;;14.93;6.50;;;20.40;99.90;;;;;;5052147;28;20023;-87
2021/08/13 03:58:37;;;;;;;9.50;6.70;;;20.30;99.90;;;;;;5053631;28;20100;-88
2021/08/13 04:01:05;;;;;;;11.38;6.90;;;20.20;99.90;;;;;;5052006;28;20425;-89
2021/08/13 04:03:30;;;;;;;8.57;6.50;;;20.30;99.90;;;;;;5052079;28;20025;-88
2021/08/13 04:05:56;;;;;;;13.50;6.35;;;20.20;99.90;;;;;;5053335;28;20025;-88
2021/08/13 04:08:22;;;;;;;10.18;6.18;;;20.10;99.90;;;;;;5051959;28;20112;-88
2021/08/13 04:10:47;;;;;;;10.50;6.20;;;19.90;99.90;;;;;;5051954;28;20519;-88
2021/08/13 04:13:13;;;;;;;11.40;6.38;;;19.90;99.90;;;;;;5052209;28;20111;-88
2021/08/13 04:15:40;;;;;;;7.20;5.47;;;20.10;99.90;;;;;;5051875;28;20033;-88
2021/08/13 04:18:05;;;;;;;8.40;5.85;;;20.30;99.90;;;;;;5051861;28;20028;-88
2021/08/13 04:20:31;;;;;;;12.07;6.63;;;20.30;99.90;;;;;;5051820;28;20111;-88
2021/08/13 04:22:57;;;;;;;18.38;6.32;;;20.20;99.90;;;;;;5051803;28;20079;-88
2021/08/13 04:25:23;;;;;;;14.27;6.40;;;20.30;99.90;;;;;;5053028;28;20021;-88
2021/08/13 04:27:48;;;;;;;7.88;6.13;;;20.40;99.90;;;;;;5051937;28;20017;-89
2021/08/13 04:30:14;;;;;;;13.20;7.03;;;20.50;99.90;;;;;;5051794;28;20067;-88
2021/08/13 04:32:41;;;;;;;12.13;6.50;;;20.50;99.90;;;;;;5053095;28;20389;-88
2021/08/13 04:35:08;;;;;;;15.10;6.43;;;20.60;99.90;;;;;;5051798;28;20033;-88
2021/08/13 04:37:34;;;;;;;8.45;6.03;;;20.70;99.90;;;;;;5051615;28;20021;-87
2021/08/13 04:40:00;;;;;;;8.93;6.57;;;20.70;99.90;;;;;;5052922;28;20070;-88
2021/08/13 04:42:26;;;;;;;9.52;6.85;;;20.60;99.90;;;;;;5051592;28;20520;-88
2021/08/13 04:44:51;;;;;;;7.47;6.38;;;20.60;99.90;;;;;;5051784;28;20104;-88
2021/08/13 04:47:17;;;;;;;10.65;6.18;;;20.60;99.90;;;;;;5051666;28;20025;-88
2021/08/13 04:49:43;;;;;;;10.30;6.78;;;20.70;99.90;;;;;;5051729;28;20029;-88
2021/08/13 04:52:09;;;;;;;10.07;6.53;;;20.60;99.90;;;;;;5051480;28;20451;-88
2021/08/13 04:54:35;;;;;;;9.30;6.53;;;20.50;99.90;;;;;;5052690;28;20029;-88
2021/08/13 04:57:00;;;;;;;12.18;7.07;;;20.40;99.90;;;;;;5051457;28;20385;-89
2021/08/13 04:59:27;;;;;;;9.57;6.63;;;20.30;99.90;;;;;;5051422;28;20028;-88
2021/08/13 05:01:52;;;;;;;9.82;6.72;;;20.20;99.90;;;;;;5052537;28;20095;-88
2021/08/13 05:04:18;;;;;;;9.45;6.72;;;20.20;99.90;;;;;;5051383;28;20468;-88
2021/08/13 05:06:44;;;;;;;12.85;6.50;;;20.20;99.90;;;;;;5054283;28;20021;-88
2021/08/13 05:09:10;;;;;;;7.82;6.25;;;20.10;99.90;;;;;;5056170;28;20021;-88
2021/08/13 05:11:36;;;;;;;9.85;6.13;;;20.00;99.90;;;;;;5055235;28;20430;-89
2021/08/13 05:14:03;;;;;;;9.80;6.50;;;20.00;99.90;;;;;;5054841;28;20032;-83
2021/08/13 05:16:29;;;;;;;17.92;7.05;;;20.30;99.90;;;;;;5054992;28;20032;-86
2021/08/13 05:18:55;;;;;;;9.40;6.72;;;20.40;99.90;;;;;;5054825;28;20491;-86
2021/08/13 05:21:22;;;;;;;16.27;6.35;;;20.30;99.90;;;;;;5054479;28;20123;-87
2021/08/13 05:23:48;;;;;;;9.38;6.40;;;20.50;99.90;;;;;;5055768;28;20385;-86
2021/08/13 05:26:13;;;;;;;10.23;6.30;;;20.60;99.90;;;;;;5054914;28;20025;-87
2021/08/13 05:28:40;;;;;;;8.23;6.47;;;20.60;99.90;;;;;;5057070;28;20021;-88
2021/08/13 05:31:05;;;;;;;14.32;6.80;;;20.60;99.90;;;;;;5056358;28;20075;-88
2021/08/13 05:33:31;;;;;;;11.02;6.68;;;20.60;99.90;;;;;;5054860;28;20024;-88
2021/08/13 05:35:57;;;;;;;7.80;6.10;;;20.50;99.90;;;;;;5054482;28;20035;-88
2021/08/13 05:38:22;;;;;;;8.05;6.13;;;20.50;99.90;;;;;;5054389;28;20048;-89
2021/08/13 05:40:48;;;;;;;11.27;6.38;;;20.50;99.90;;;;;;5055627;28;20029;-88
2021/08/13 05:43:14;;;;;;;13.20;5.95;;;20.50;99.90;;;;;;5054989;28;20403;-89
2021/08/13 05:45:39;;;;;;;10.68;6.68;;;20.60;99.90;;;;;;5055253;28;20021;-88
2021/08/13 05:48:05;;;;;;;10.10;6.57;;;20.50;99.90;;;;;;5055465;28;20029;-89
2021/08/13 05:50:31;;;;;;;9.27;6.63;;;20.50;99.90;;;;;;5056376;28;20021;-88
2021/08/13 05:52:57;;;;;;;9.43;6.22;;;20.40;99.90;;;;;;5077512;28;20039;-88
2021/08/13 05:55:23;;;;;;;16.63;6.35;;;20.40;99.90;;;;;;5077460;28;20476;-88
2021/08/13 05:57:49;;;;;;;11.10;6.32;;;20.60;99.90;;;;;;5077257;28;20028;-88
2021/08/13 06:00:15;;;;;;;9.43;6.60;;;20.60;99.90;;;;;;5077303;28;20050;-88
2021/08/13 06:02:55;;;;;;;10.38;6.18;;;20.70;99.90;;;;;;5078107;28;20020;-88
2021/08/13 06:05:21;;;;;;;10.02;6.22;;;20.90;99.90;;;;;;5095429;28;20468;-88
2021/08/13 06:07:47;;;;;;;13.68;6.45;;;20.90;99.90;;;;;;5077272;28;20065;-89
2021/08/13 06:10:13;;;;;;;10.20;6.25;;;21.00;99.90;;;;;;5077118;28;20024;-89
2021/08/13 06:12:39;;;;;;;6.85;5.60;;;21.10;99.90;;;;;;5077080;28;20030;-89
2021/08/13 06:15:05;;;;;;;12.82;6.22;;;21.30;99.90;;;;;;5095460;28;20052;-88
2021/08/13 06:17:30;;;;;;;9.18;5.85;;;21.40;99.90;;;;;;5077570;28;20032;-88
2021/08/13 06:19:56;;;;;;;12.95;6.22;;;21.50;99.90;;;;;;5095572;28;20074;-88
2021/08/13 06:22:22;;;;;;;8.82;6.38;;;21.50;99.90;;;;;;5095399;28;20088;-88
2021/08/13 06:24:47;;;;;;;9.32;6.63;;;21.60;99.90;;;;;;5077056;28;20024;-88
2021/08/13 06:27:13;;;;;;;11.23;6.70;;;21.70;99.90;;;;;;5076743;28;20026;-89
2021/08/13 06:29:39;;;;;;;14.02;6.88;;;21.80;99.90;;;;;;5076955;28;20097;-88
2021/08/13 06:32:05;;;;;;;13.50;7.00;;;21.80;99.90;;;;;;5076546;28;20031;-89
2021/08/13 06:34:30;;;;;;;10.15;6.28;;;21.80;99.90;;;;;;5076631;28;20027;-88
2021/08/13 06:36:56;;;;;;;12.50;6.70;;;21.90;99.90;;;;;;5076554;28;20055;-89
2021/08/13 06:39:22;;;;;;;11.95;6.53;;;22.10;99.90;;;;;;5094706;28;20028;-89
2021/08/13 06:41:47;;;;;;;11.65;6.28;;;22.20;99.90;;;;;;5076268;28;20020;-89
2021/08/13 06:44:14;;;;;;;11.05;6.70;;;22.30;99.90;;;;;;5076440;28;20048;-88
2021/08/13 06:46:41;;;;;;;13.40;7.05;;;22.40;99.90;;;;;;5094483;28;20073;-89
2021/08/13 06:49:07;;;;;;;12.52;6.25;;;22.50;99.90;;;;;;5076343;28;20423;-89
2021/08/13 06:51:33;;;;;;;11.93;6.32;;;22.60;99.90;;;;;;5076191;28;20048;-89
2021/08/13 06:53:58;;;;;;;10.43;5.00;;;22.70;99.90;;;;;;5076308;28;20032;-88
2021/08/13 06:56:24;;;;;;;10.57;5.43;;;22.80;99.90;;;;;;5076222;28;20487;-89
2021/08/13 06:58:50;;;;;;;11.70;5.88;;;22.90;99.90;;;;;;5076230;28;20391;-88
2021/08/13 07:01:15;;;;;;;12.07;5.55;;;23.00;99.90;;;;;;5076047;28;20028;-89
2021/08/13 07:03:41;;;;;;;10.00;5.75;;;23.00;99.90;;;;;;5076103;28;20067;-89
2021/08/13 07:06:07;;;;;;;10.70;5.25;;;23.10;99.90;;;;;;5076029;28;20548;-88
2021/08/13 07:08:32;;;;;;;11.15;4.90;;;23.20;99.90;;;;;;5075905;28;20020;-88
2021/08/13 07:10:58;;;;;;;9.05;5.43;;;23.30;99.90;;;;;;5075994;28;20031;-88
2021/08/13 07:13:24;;;;;;;9.77;5.32;;;23.50;99.90;;;;;;5076499;28;20081;-89
2021/08/13 07:15:50;;;;;;;8.38;5.22;;;23.50;99.90;;;;;;5075906;28;20115;-88
2021/08/13 07:18:15;;;;;;;10.93;5.32;;;23.50;99.90;;;;;;5093989;28;20375;-88
2021/08/13 07:20:41;;;;;;;13.35;4.75;;;23.70;99.90;;;;;;5076586;28;20448;-89
2021/08/13 07:23:07;;;;;;;12.70;5.15;;;23.80;99.90;;;;;;5075705;28;20430;-88
2021/08/13 07:25:32;;;;;;;10.45;5.32;;;23.90;99.90;;;;;;5076690;28;20028;-89
2021/08/13 07:27:58;;;;;;;8.27;4.93;;;23.90;99.90;;;;;;5075235;28;20414;-88
2021/08/13 07:30:24;;;;;;;12.35;4.70;;;24.00;99.90;;;;;;5075958;28;20028;-88
2021/08/13 07:32:49;;;;;;;16.88;5.00;;;24.00;99.90;;;;;;5075740;28;20024;-89
2021/08/13 07:35:15;;;;;;;12.00;4.72;;;24.10;99.90;;;;;;5076494;28;20024;-88
2021/08/13 07:37:41;;;;;;;14.77;5.00;;;24.20;99.90;;;;;;5076484;28;20028;-88
2021/08/13 07:40:07;;;;;;;11.48;4.70;;;24.30;99.90;;;;;;5094115;28;20047;-88
2021/08/13 07:42:35;;;;;;;14.48;4.80;;;24.40;99.90;;;;;;5093698;28;20058;-89
2021/08/13 07:45:01;;;;;;;10.05;4.57;;;24.60;99.90;;;;;;5075519;28;20028;-88
2021/08/13 07:47:27;;;;;;;10.35;4.45;;;24.60;99.90;;;;;;5075456;28;20024;-88
2021/08/13 07:49:52;;;;;;;8.50;4.30;;;24.60;99.90;;;;;;5075159;28;20031;-88
2021/08/13 07:52:18;;;;;;;13.18;4.63;;;24.60;99.90;;;;;;5075476;28;20059;-88
2021/08/13 07:54:44;;;;;;;11.80;5.13;;;24.70;99.90;;;;;;5075415;28;20480;-88
2021/08/13 07:57:10;;;;;;;8.27;4.45;;;24.90;99.90;;;;;;5075387;28;20025;-88
2021/08/13 07:59:36;;;;;;;8.35;4.63;;;25.00;99.90;;;;;;5075366;28;20024;-88
2021/08/13 08:02:02;;;;;;;16.80;4.72;;;25.00;99.90;;;;;;5075164;28;20054;-89
2021/08/13 08:04:28;;;;;;;12.13;4.00;;;25.10;99.90;;;;;;5075287;28;20066;-88
2021/08/13 08:06:56;;;;;;;8.20;4.35;;;25.20;99.90;;;;;;5075360;28;20028;-88
2021/08/13 08:09:23;;;;;;;8.55;3.85;;;25.40;99.90;;;;;;5075365;28;20020;-88
2021/08/13 08:11:49;;;;;;;11.75;4.55;;;25.50;99.90;;;;;;5075173;28;20024;-88
2021/08/13 08:14:14;;;;;;;17.33;3.90;;;25.70;99.90;;;;;;5075141;28;20039;-88
2021/08/13 08:16:40;;;;;;;16.73;4.07;;;25.80;99.90;;;;;;5075242;28;20077;-88
2021/08/13 08:19:06;;;;;;;8.93;3.45;;;26.10;99.90;;;;;;5075090;28;20099;-89
2021/08/13 08:21:32;;;;;;;13.43;3.50;;;26.20;99.90;;;;;;5093166;28;20028;-87
2021/08/13 08:23:58;;;;;;;11.45;3.80;;;26.20;99.90;;;;;;5075034;28;20024;-88
2021/08/13 08:26:24;;;;;;;11.60;3.28;;;26.30;99.90;;;;;;5093020;28;20126;-88
2021/08/13 08:28:50;;;;;;;8.27;3.40;;;26.30;99.90;;;;;;5075006;28;20111;-88
2021/08/13 08:31:15;;;;;;;11.43;3.47;;;26.40;99.90;;;;;;5074900;28;20239;-88
2021/08/13 08:33:41;;;;;;;9.95;3.40;;;26.40;99.90;;;;;;5074979;28;20476;-87
2021/08/13 08:36:07;;;;;;;9.85;4.13;;;26.70;99.90;;;;;;5074907;28;20388;-88
2021/08/13 08:38:34;;;;;;;14.15;3.72;;;26.80;99.90;;;;;;5074961;28;20028;-87
2021/08/13 08:41:07;;;;;;;8.48;3.40;;;26.90;99.90;;;;;;5095094;28;20069;-87
2021/08/13 08:43:33;;;;;;;12.70;3.72;;;27.10;99.90;;;;;;5078647;28;20026;-87
2021/08/13 08:46:00;;;;;;;10.05;3.80;;;27.30;99.90;;;;;;5078664;28;20077;-87
2021/08/13 08:48:37;;;;;;;9.05;3.80;;;27.30;99.90;;;;;;5078554;28;20016;-88
2021/08/13 08:51:05;;;;;;;9.82;3.72;;;27.10;99.90;;;;;;5078414;28;20044;-87
2021/08/13 08:53:31;;;;;;;8.02;3.60;;;27.20;99.90;;;;;;5078506;28;20028;-88
2021/08/13 08:55:58;;;;;;;10.23;3.53;;;27.30;99.90;;;;;;5078273;28;20055;-88
2021/08/13 08:58:26;;;;;;;7.45;3.67;;;27.60;99.90;;;;;;5078244;28;20028;-87
2021/08/13 09:00:52;;;;;;;10.20;3.55;;;27.80;99.90;;;;;;5078223;28;20103;-88
2021/08/13 09:03:21;;;;;;;12.32;3.75;;;27.90;99.90;;;;;;5096495;28;20112;-87
2021/08/13 09:05:48;;;;;;;12.00;3.80;;;28.00;99.90;;;;;;5078154;28;20024;-87
2021/08/13 09:08:13;;;;;;;11.60;4.13;;;28.10;99.90;;;;;;5078163;28;20047;-88
2021/08/13 09:10:43;;;;;;;12.23;4.18;;;28.10;99.90;;;;;;5078148;28;20484;-87
2021/08/13 09:13:10;;;;;;;14.30;4.25;;;28.20;99.90;;;;;;5078126;28;20391;-87
2021/08/13 09:15:39;;;;;;;10.38;3.70;;;28.20;99.90;;;;;;5078005;28;20472;-87
2021/08/13 09:18:20;;;;;;;10.45;3.58;;;28.30;99.90;;;;;;5077891;28;20059;-87
2021/08/13 09:20:49;;;;;;;9.70;4.00;;;28.50;99.90;;;;;;5078027;28;20483;-87
2021/08/13 09:23:32;;;;;;;12.75;3.50;;;28.60;99.90;;;;;;5078097;28;20020;-87
2021/08/13 09:26:10;;;;;;;14.77;3.83;;;28.60;99.90;;;;;;5077853;28;20110;-88
2021/08/13 09:28:50;;;;;;;12.40;4.22;;;28.60;99.90;;;;;;5096259;28;20372;-86
2021/08/13 09:31:17;;;;;;;10.48;3.75;;;28.60;99.90;;;;;;5095890;28;20103;-87
2021/08/13 09:33:48;;;;;;;7.90;4.05;;;28.90;99.90;;;;;;5077750;28;20042;-86
2021/08/13 09:36:19;;;;;;;9.73;3.88;;;29.20;99.90;;;;;;5077657;28;20132;-87
2021/08/13 09:38:46;;;;;;;7.88;3.95;;;29.20;99.90;;;;;;5096218;28;20047;-86
2021/08/13 09:41:15;;;;;;;9.52;3.90;;;29.00;99.90;;;;;;5077694;28;20502;-86
2021/08/13 09:44:01;;;;;;;10.13;4.30;;;29.00;99.90;;;;;;5077643;28;20028;-87
2021/08/13 09:46:30;;;;;;;7.70;3.60;;;29.00;99.90;;;;;;5079323;28;20020;-87
2021/08/13 09:49:13;;;;;;;10.25;3.85;;;29.20;99.90;;;;;;5080349;28;20406;-87
2021/08/13 09:51:39;;;;;;;9.98;3.78;;;29.50;99.90;;;;;;5077600;28;20139;-88
2021/08/13 09:54:06;;;;;;;11.00;3.83;;;29.50;99.90;;;;;;5077436;28;20069;-87
2021/08/13 09:56:36;;;;;;;13.80;4.00;;;29.70;99.90;;;;;;5077364;28;20028;-87
2021/08/13 09:59:15;;;;;;;10.82;3.97;;;29.70;99.90;;;;;;5060606;28;20047;-87
2021/08/13 10:01:42;;;;;;;7.05;4.13;;;29.80;99.90;;;;;;5077278;28;20060;-87
2021/08/13 10:04:08;;;;;;;10.55;4.18;;;29.70;99.90;;;;;;5077090;28;20021;-87
2021/08/13 10:06:35;;;;;;;9.55;4.22;;;29.80;99.90;;;;;;5077143;28;20034;-86
2021/08/13 10:09:02;;;;;;;12.63;4.30;;;30.30;99.90;;;;;;5077938;28;20016;-86
2021/08/13 10:11:28;;;;;;;8.98;4.40;;;30.00;99.90;;;;;;5095099;28;20016;-87
2021/08/13 10:13:55;;;;;;;11.38;4.25;;;30.00;99.90;;;;;;5076929;28;20024;-86
2021/08/13 10:16:25;;;;;;;9.52;3.70;;;30.00;99.90;;;;;;5076971;28;20490;-88
2021/08/13 10:18:55;;;;;;;12.15;4.22;;;29.70;99.90;;;;;;5077044;28;20424;-87
2021/08/13 10:21:24;;;;;;;9.18;4.03;;;29.80;99.90;;;;;;5076743;28;20024;-87
2021/08/13 10:23:54;;;;;;;11.60;4.30;;;29.30;99.90;;;;;;5076920;28;20585;-87
2021/08/13 10:26:21;;;;;;;11.02;4.07;;;29.30;99.90;;;;;;5095106;28;20044;-87
2021/08/13 10:28:48;;;;;;;10.95;4.38;;;29.20;99.90;;;;;;5077280;28;20035;-87
2021/08/13 10:31:18;;;;;;;11.88;4.35;;;29.10;99.90;;;;;;5076645;28;20053;-88
2021/08/13 10:33:45;;;;;;;10.02;3.80;;;28.90;99.90;;;;;;5077018;28;20081;-87
2021/08/13 10:36:16;;;;;;;16.23;4.10;;;28.80;99.90;;;;;;5076489;28;20114;-87
2021/08/13 10:38:42;;;;;;;9.00;3.78;;;28.80;99.90;;;;;;5076520;28;20027;-87
2021/08/13 10:41:09;;;;;;;14.35;4.30;;;29.20;99.90;;;;;;5076485;28;20032;-87
2021/08/13 10:43:38;;;;;;;11.05;4.20;;;29.00;99.90;;;;;;5076354;28;20476;-87
2021/08/13 10:46:09;;;;;;;15.20;4.18;;;29.60;99.90;;;;;;5094545;28;20019;-87
2021/08/13 10:48:40;;;;;;;8.32;4.07;;;29.00;99.90;;;;;;5094852;28;20024;-87
2021/08/13 10:51:06;;;;;;;15.15;4.32;;;28.80;99.90;;;;;;5075958;28;20044;-87
2021/08/13 10:53:37;;;;;;;10.15;4.10;;;28.80;99.90;;;;;;5094588;28;20028;-87
2021/08/13 10:56:04;;;;;;;10.20;4.47;;;29.00;99.90;;;;;;5076410;28;20028;-87
2021/08/13 10:58:36;;;;;;;10.20;4.70;;;29.10;99.90;;;;;;5094213;28;20020;-88
2021/08/13 11:01:06;;;;;;;8.63;4.22;;;29.20;99.90;;;;;;5076004;28;20132;-87
2021/08/13 11:03:33;;;;;;;10.13;4.88;;;29.10;99.90;;;;;;5075148;28;20020;-87
2021/08/13 11:05:59;;;;;;;11.05;4.43;;;29.40;99.90;;;;;;5076066;28;20112;-87
2021/08/13 11:08:40;;;;;;;6.63;3.92;;;30.40;99.90;;;;;;5075971;28;20074;-87
2021/08/13 11:11:13;;;;;;;9.02;4.65;;;31.20;99.90;;;;;;5093993;28;20028;-86
2021/08/13 11:13:42;;;;;;;11.45;4.47;;;31.60;99.90;;;;;;5075784;28;20020;-86
2021/08/13 11:16:28;;;;;;;14.43;4.60;;;31.50;99.90;;;;;;5075634;28;20118;-87
2021/08/13 11:19:06;;;;;;;9.52;4.30;;;32.00;99.90;;;;;;5075749;28;20070;-86
2021/08/13 11:21:51;;;;;;;12.40;4.25;;;32.30;99.90;;;;;;5094138;28;20105;-87
2021/08/13 11:24:21;;;;;;;8.52;4.38;;;32.20;99.90;;;;;;5093728;28;20031;-86
2021/08/13 11:26:47;;;;;;;9.73;4.13;;;32.60;99.90;;;;;;5093857;28;20400;-87
2021/08/13 11:29:34;;;;;;;9.82;4.07;;;31.70;99.90;;;;;;5075637;28;20107;-87
2021/08/13 11:32:04;;;;;;;9.73;4.65;;;31.10;99.90;;;;;;5094046;28;20059;-87
2021/08/13 11:34:47;;;;;;;10.73;4.35;;;31.10;99.90;;;;;;5075603;28;20024;-87
2021/08/13 11:37:31;;;;;;;11.15;4.47;;;32.10;99.90;;;;;;5075546;28;20020;-87
2021/08/13 11:39:59;;;;;;;7.97;4.50;;;32.30;99.90;;;;;;5075420;28;20032;-87
2021/08/13 11:42:33;;;;;;;8.38;4.45;;;32.70;99.90;;;;;;5075396;28;20457;-85
2021/08/13 11:45:01;;;;;;;6.80;4.28;;;33.00;99.90;;;;;;5093580;28;20099;-86
2021/08/13 11:47:27;;;;;;;8.35;4.80;;;33.30;99.90;;;;;;5075378;28;20035;-86
2021/08/13 11:49:54;;;;;;;13.63;4.57;;;33.40;99.90;;;;;;5075327;28;20020;-86
2021/08/13 11:52:25;;;;;;;10.02;4.20;;;32.80;99.90;;;;;;5075205;28;20097;-87
2021/08/13 11:54:51;;;;;;;9.43;4.18;;;32.50;99.90;;;;;;5076817;28;20048;-87
2021/08/13 11:57:22;;;;;;;8.20;4.45;;;32.30;99.90;;;;;;5079303;28;20036;-86
2021/08/13 11:59:49;;;;;;;11.32;4.60;;;32.60;99.90;;;;;;5076529;28;20514;-87
2021/08/13 12:02:31;;;;;;;8.88;4.47;;;33.00;99.90;;;;;;5075238;28;20021;-87
2021/08/13 12:05:08;;;;;;;9.20;4.80;;;32.10;99.90;;;;;;5075317;28;20055;-87
2021/08/13 12:07:34;;;;;;;7.72;4.60;;;31.20;99.90;;;;;;5075740;28;20023;-87
2021/08/13 12:10:14;;;;;;;6.25;4.22;;;30.70;99.90;;;;;;5093337;28;20036;-87
2021/08/13 12:12:44;;;;;;;8.18;4.28;;;30.70;99.90;;;;;;5075279;28;20073;-87
2021/08/13 12:15:10;;;;;;;7.43;4.35;;;31.20;99.90;;;;;;5077395;28;20112;-86
2021/08/13 12:17:36;;;;;;;9.10;4.75;;;32.10;99.90;;;;;;5079140;28;20040;-86
2021/08/13 12:20:06;;;;;;;8.27;4.43;;;32.40;99.90;;;;;;5079175;28;20035;-86
2021/08/13 12:22:39;;;;;;;7.05;4.78;;;33.10;99.00;;;;;;5097089;28;20396;-87
2021/08/13 12:25:10;;;;;;;6.00;3.70;;;33.20;97.40;;;;;;5079146;28;20028;-87
2021/08/13 12:27:38;;;;;;;10.20;4.40;;;32.80;97.50;;;;;;5097027;28;20024;-87
2021/08/13 12:30:17;;;;;;;10.52;4.72;;;32.80;98.50;;;;;;5078928;28;20415;-87
2021/08/13 12:32:44;;;;;;;9.75;4.10;;;32.40;99.20;;;;;;5078966;28;20433;-87
2021/08/13 12:35:12;;;;;;;6.32;4.18;;;32.00;99.30;;;;;;5078798;28;20062;-87
2021/08/13 12:37:40;;;;;;;11.10;4.47;;;32.00;99.40;;;;;;5078794;28;20031;-87
2021/08/13 12:40:08;;;;;;;10.38;4.40;;;32.10;98.20;;;;;;5078634;28;20028;-87
2021/08/13 12:42:34;;;;;;;10.95;4.50;;;31.80;99.40;;;;;;5080958;28;20055;-88
2021/08/13 12:45:01;;;;;;;11.55;4.93;;;31.70;98.80;;;;;;5062129;28;20048;-88